Time;durP1;ratioP1;P1;durP2;ratioP2;P2;SDS_P1;SDS_P2;PMS_P1;PMS_P2;Temp;Humidity;BMP_temperature;BMP_pressure;BME280_temperature;BME280_humidity;BME280_pressure;Samples;Min_cycle;Max_cycle;Signal;HPM_P1;HPM_P2
2022/03/08 00:00:36;;;;;;;15.68;11.70;;;3.40;99.80;;;;;;5072602;28;20111;-41
2022/03/08 00:03:03;;;;;;;15.38;11.65;;;3.30;99.80;;;;;;5072259;28;20440;-41
2022/03/08 00:05:29;;;;;;;13.60;10.90;;;3.30;99.80;;;;;;5074559;28;20032;-42
2022/03/08 00:07:55;;;;;;;17.25;11.98;;;3.30;99.70;;;;;;5069847;28;20027;-43
2022/03/08 00:10:21;;;;;;;15.25;10.75;;;3.30;99.70;;;;;;5077274;28;20036;-41
2022/03/08 00:12:47;;;;;;;13.63;10.38;;;3.30;99.70;;;;;;5066911;28;20020;-44
2022/03/08 00:15:21;;;;;;;15.55;11.35;;;3.30;99.70;;;;;;5078712;28;20038;-42
2022/03/08 00:17:47;;;;;;;16.83;10.88;;;3.30;99.70;;;;;;5068422;28;20020;-42
2022/03/08 00:20:14;;;;;;;16.30;11.70;;;3.20;99.70;;;;;;5078049;28;20024;-41
2022/03/08 00:22:40;;;;;;;17.05;12.07;;;3.20;99.70;;;;;;5066999;28;20028;-42
2022/03/08 00:25:07;;;;;;;16.33;11.95;;;3.20;99.60;;;;;;5079702;28;20024;-43
2022/03/08 00:27:33;;;;;;;15.23;11.57;;;3.20;99.60;;;;;;5065770;28;20476;-41
2022/03/08 00:29:59;;;;;;;16.17;11.55;;;3.20;99.60;;;;;;5079790;28;20043;-44
2022/03/08 00:32:25;;;;;;;17.15;11.77;;;3.20;99.60;;;;;;5067445;28;20023;-41
2022/03/08 00:34:50;;;;;;;17.08;12.27;;;3.20;99.50;;;;;;5076666;28;20024;-41
2022/03/08 00:37:17;;;;;;;17.00;12.15;;;3.20;99.50;;;;;;5068740;28;20545;-40
2022/03/08 00:39:43;;;;;;;14.05;10.68;;;3.10;99.40;;;;;;5074619;28;20024;-41
2022/03/08 00:42:11;;;;;;;15.15;11.70;;;3.10;99.40;;;;;;5070699;28;20024;-42
2022/03/08 00:44:38;;;;;;;13.77;10.30;;;3.10;99.40;;;;;;5073278;28;20700;-43
2022/03/08 00:47:04;;;;;;;17.48;10.73;;;3.10;99.30;;;;;;5072154;28;20027;-42
2022/03/08 00:49:30;;;;;;;14.30;10.18;;;3.10;99.30;;;;;;5074671;28;20032;-42
2022/03/08 00:51:55;;;;;;;13.48;9.88;;;3.10;99.30;;;;;;5078659;28;20805;-42
2022/03/08 00:54:21;;;;;;;13.15;9.25;;;3.10;99.30;;;;;;5084432;28;20035;-43
2022/03/08 00:56:46;;;;;;;11.73;8.77;;;3.10;99.20;;;;;;5075179;28;20625;-43
2022/03/08 00:59:12;;;;;;;11.02;8.48;;;3.10;99.20;;;;;;5085215;28;20069;-41
2022/03/08 01:01:37;;;;;;;12.70;9.23;;;3.10;99.10;;;;;;5073817;28;20031;-43
2022/03/08 01:04:03;;;;;;;13.90;9.18;;;3.00;99.00;;;;;;5086705;28;20055;-42
2022/03/08 01:06:29;;;;;;;9.98;7.78;;;3.00;99.00;;;;;;5073665;28;20019;-40
2022/03/08 01:08:54;;;;;;;11.80;8.50;;;3.00;99.00;;;;;;5085378;28;20030;-42
2022/03/08 01:11:20;;;;;;;13.40;9.50;;;3.00;99.00;;;;;;5073587;28;20028;-42
2022/03/08 01:13:45;;;;;;;13.43;8.43;;;3.00;99.00;;;;;;5085950;28;20027;-41
2022/03/08 01:16:11;;;;;;;11.93;8.90;;;3.00;99.00;;;;;;5074255;28;20032;-42
2022/03/08 01:18:36;;;;;;;12.02;8.90;;;3.00;99.00;;;;;;5084771;28;20033;-43
2022/03/08 01:21:02;;;;;;;13.60;9.93;;;3.00;99.00;;;;;;5077645;28;20040;-41
2022/03/08 01:23:28;;;;;;;12.10;8.57;;;2.90;98.90;;;;;;5081729;28;20054;-42
2022/03/08 01:25:53;;;;;;;11.07;8.10;;;2.90;98.90;;;;;;5079898;28;20020;-41
2022/03/08 01:28:19;;;;;;;13.35;9.60;;;2.90;99.00;;;;;;5079940;28;20027;-40
2022/03/08 01:30:46;;;;;;;13.13;9.80;;;2.90;99.00;;;;;;5081987;28;20360;-41
2022/03/08 01:33:11;;;;;;;11.93;8.85;;;2.80;99.00;;;;;;5077272;28;20035;-42
2022/03/08 01:35:37;;;;;;;10.52;8.02;;;2.80;99.00;;;;;;5084493;28;20020;-40
2022/03/08 01:38:02;;;;;;;10.75;8.25;;;2.80;99.00;;;;;;5073905;28;20058;-41
2022/03/08 01:40:28;;;;;;;12.70;8.30;;;2.80;99.00;;;;;;5084794;28;20525;-42
2022/03/08 01:42:54;;;;;;;11.32;7.95;;;2.80;99.00;;;;;;5073669;28;20515;-41
2022/03/08 01:45:24;;;;;;;9.52;7.63;;;2.80;99.00;;;;;;5085846;28;20043;-42
2022/03/08 01:47:50;;;;;;;11.18;7.70;;;2.70;99.00;;;;;;5073098;28;20067;-41
2022/03/08 01:50:17;;;;;;;9.05;7.70;;;2.70;99.00;;;;;;5085260;28;20040;-42
2022/03/08 01:52:43;;;;;;;10.02;7.38;;;2.70;99.00;;;;;;5072679;28;20048;-41
2022/03/08 01:55:10;;;;;;;9.13;6.85;;;2.60;99.00;;;;;;5085945;28;20391;-43
2022/03/08 01:57:36;;;;;;;8.60;6.63;;;2.60;99.10;;;;;;5073117;28;20035;-40
2022/03/08 02:00:05;;;;;;;9.65;6.88;;;2.60;99.10;;;;;;5084652;28;20052;-41
2022/03/08 02:02:31;;;;;;;8.40;6.68;;;2.60;99.10;;;;;;5075827;28;20028;-42
2022/03/08 02:04:57;;;;;;;8.65;6.53;;;2.60;99.10;;;;;;5082136;28;20036;-41
2022/03/08 02:07:24;;;;;;;8.45;6.93;;;2.50;99.10;;;;;;5079297;28;20033;-38
2022/03/08 02:09:49;;;;;;;11.00;7.35;;;2.50;99.10;;;;;;5080101;28;20089;-43
2022/03/08 02:12:15;;;;;;;10.35;7.35;;;2.50;99.10;;;;;;5080762;28;20120;-41
2022/03/08 02:14:42;;;;;;;8.77;7.38;;;2.50;99.10;;;;;;5076507;28;20487;-42
2022/03/08 02:17:08;;;;;;;11.07;7.82;;;2.50;99.00;;;;;;5084279;28;20020;-41
2022/03/08 02:19:33;;;;;;;12.77;8.60;;;2.50;99.00;;;;;;5073390;28;20060;-41
2022/03/08 02:21:59;;;;;;;10.77;6.82;;;2.50;99.00;;;;;;5084288;28;20053;-41
2022/03/08 02:24:24;;;;;;;9.55;7.32;;;2.50;99.00;;;;;;5074133;28;20029;-43
2022/03/08 02:26:51;;;;;;;10.05;7.80;;;2.50;98.90;;;;;;5084135;28;20027;-42
2022/03/08 02:29:17;;;;;;;9.55;7.45;;;2.40;98.90;;;;;;5073186;28;20048;-42
2022/03/08 02:31:42;;;;;;;10.85;7.35;;;2.40;98.80;;;;;;5085008;28;20071;-43
2022/03/08 02:34:08;;;;;;;9.18;7.68;;;2.40;98.80;;;;;;5071581;28;20500;-41
2022/03/08 02:36:34;;;;;;;9.63;8.18;;;2.40;98.70;;;;;;5085381;28;20020;-40
2022/03/08 02:38:59;;;;;;;10.68;7.65;;;2.40;98.70;;;;;;5073060;28;20106;-42
2022/03/08 02:41:25;;;;;;;9.10;6.70;;;2.40;98.60;;;;;;5083449;28;20502;-42
2022/03/08 02:43:51;;;;;;;8.93;6.70;;;2.40;98.60;;;;;;5076007;28;20029;-42
2022/03/08 02:46:16;;;;;;;9.85;6.60;;;2.40;98.60;;;;;;5081191;28;20025;-42
2022/03/08 02:48:42;;;;;;;7.30;5.75;;;2.40;98.60;;;;;;5077360;28;20032;-41
2022/03/08 02:51:07;;;;;;;7.57;5.68;;;2.40;98.60;;;;;;5080028;28;20036;-41
2022/03/08 02:53:33;;;;;;;7.93;6.25;;;2.40;98.50;;;;;;5079955;28;20134;-42
2022/03/08 02:55:58;;;;;;;10.07;6.70;;;2.30;98.50;;;;;;5075891;28;20059;-41
2022/03/08 02:58:24;;;;;;;7.60;6.07;;;2.30;98.50;;;;;;5085051;28;20430;-42
2022/03/08 03:00:50;;;;;;;8.80;6.70;;;2.40;98.40;;;;;;5076318;28;20470;-38
2022/03/08 03:03:15;;;;;;;8.10;6.30;;;2.40;98.40;;;;;;5087281;28;20027;-40
2022/03/08 03:05:41;;;;;;;6.22;5.20;;;2.40;98.40;;;;;;5076580;28;20024;-42
2022/03/08 03:08:07;;;;;;;6.88;5.68;;;2.30;98.40;;;;;;5087991;28;20056;-41
2022/03/08 03:10:33;;;;;;;7.20;5.45;;;2.30;98.30;;;;;;5074744;28;20532;-41
2022/03/08 03:12:59;;;;;;;7.97;5.40;;;2.40;98.30;;;;;;5088927;28;20108;-41
2022/03/08 03:15:26;;;;;;;7.05;5.32;;;2.40;98.30;;;;;;5074176;28;20589;-41
2022/03/08 03:17:52;;;;;;;7.57;5.25;;;2.30;98.30;;;;;;5087871;28;20096;-41
2022/03/08 03:20:20;;;;;;;8.98;6.10;;;2.30;98.20;;;;;;5077652;28;20070;-42
2022/03/08 03:22:46;;;;;;;7.43;5.30;;;2.30;98.20;;;;;;5085847;28;20020;-41
2022/03/08 03:25:12;;;;;;;7.82;5.55;;;2.30;98.20;;;;;;5079539;28;20086;-41
2022/03/08 03:27:39;;;;;;;7.35;5.28;;;2.30;98.10;;;;;;5083735;28;20039;-42
2022/03/08 03:30:07;;;;;;;6.63;5.30;;;2.30;98.10;;;;;;5081022;28;20033;-38
2022/03/08 03:32:33;;;;;;;6.25;5.63;;;2.30;98.00;;;;;;5081502;28;20044;-39
2022/03/08 03:35:00;;;;;;;7.25;5.57;;;2.30;97.90;;;;;;5084265;28;20038;-41
2022/03/08 03:37:26;;;;;;;7.90;6.00;;;2.40;97.90;;;;;;5078740;28;20024;-41
2022/03/08 03:39:51;;;;;;;8.63;6.00;;;2.40;97.80;;;;;;5085610;28;20414;-42
2022/03/08 03:42:17;;;;;;;9.82;5.90;;;2.40;97.70;;;;;;5077306;28;20420;-42
2022/03/08 03:44:42;;;;;;;6.40;5.40;;;2.40;97.60;;;;;;5085469;28;20580;-41
2022/03/08 03:47:08;;;;;;;6.30;5.15;;;2.40;97.50;;;;;;5076756;28;20016;-41
2022/03/08 03:49:34;;;;;;;6.78;5.45;;;2.40;97.50;;;;;;5086660;28;20059;-41
2022/03/08 03:51:59;;;;;;;8.82;6.20;;;2.40;97.50;;;;;;5075293;28;20414;-42
2022/03/08 03:54:25;;;;;;;7.80;6.30;;;2.40;97.40;;;;;;5088014;28;20035;-41
2022/03/08 03:56:50;;;;;;;6.50;5.80;;;2.40;97.40;;;;;;5074024;28;20031;-42
2022/03/08 03:59:16;;;;;;;8.27;5.32;;;2.40;97.40;;;;;;5087535;28;20409;-41
2022/03/08 04:01:42;;;;;;;8.23;5.47;;;2.30;97.30;;;;;;5075758;28;20075;-41
2022/03/08 04:04:07;;;;;;;7.97;6.32;;;2.30;97.30;;;;;;5085119;28;20029;-40
2022/03/08 04:06:33;;;;;;;7.47;5.88;;;2.30;97.30;;;;;;5078524;28;20078;-42
2022/03/08 04:09:00;;;;;;;6.68;5.35;;;2.30;97.20;;;;;;5083018;28;20032;-41
2022/03/08 04:11:26;;;;;;;7.43;5.63;;;2.30;97.20;;;;;;5080124;28;20024;-40
2022/03/08 04:13:51;;;;;;;7.70;5.80;;;2.30;97.20;;;;;;5080251;28;20410;-41
2022/03/08 04:16:17;;;;;;;6.70;4.75;;;2.30;97.20;;;;;;5083362;28;20153;-41
2022/03/08 04:18:42;;;;;;;6.32;5.68;;;2.30;97.20;;;;;;5076917;28;20024;-42
2022/03/08 04:21:08;;;;;;;6.05;5.45;;;2.20;97.20;;;;;;5085617;28;20039;-41
2022/03/08 04:23:33;;;;;;;9.38;5.90;;;2.20;97.20;;;;;;5075231;28;20032;-42
2022/03/08 04:25:59;;;;;;;7.10;4.93;;;2.20;97.30;;;;;;5084621;28;20032;-39
2022/03/08 04:28:25;;;;;;;7.40;5.00;;;2.20;97.30;;;;;;5075235;28;20035;-41
2022/03/08 04:30:51;;;;;;;7.35;5.40;;;2.20;97.30;;;;;;5086215;28;20443;-41
2022/03/08 04:33:16;;;;;;;7.68;6.32;;;2.20;97.30;;;;;;5073712;28;20023;-42
2022/03/08 04:35:42;;;;;;;6.85;5.65;;;2.10;97.30;;;;;;5086153;28;20028;-42
2022/03/08 04:38:08;;;;;;;7.63;5.20;;;2.10;97.30;;;;;;5073639;28;20032;-41
2022/03/08 04:40:34;;;;;;;6.30;4.75;;;2.10;97.30;;;;;;5084959;28;20471;-42
2022/03/08 04:42:59;;;;;;;7.75;5.18;;;2.10;97.30;;;;;;5076925;28;20032;-40
2022/03/08 04:45:25;;;;;;;6.60;4.90;;;2.20;97.30;;;;;;5084674;28;20020;-40
2022/03/08 04:47:50;;;;;;;6.22;5.60;;;2.20;97.30;;;;;;5078019;28;20081;-40
2022/03/08 04:50:16;;;;;;;8.30;6.05;;;2.20;97.30;;;;;;5086492;28;20051;-40
2022/03/08 04:52:44;;;;;;;8.55;5.55;;;2.20;97.20;;;;;;5080620;28;20016;-43
2022/03/08 04:55:10;;;;;;;7.47;5.32;;;2.20;97.20;;;;;;5079303;28;20051;-41
2022/03/08 04:57:36;;;;;;;6.75;5.97;;;2.20;97.10;;;;;;5083800;28;20017;-41
2022/03/08 05:00:03;;;;;;;7.65;5.88;;;2.20;97.10;;;;;;5076182;28;20023;-43
2022/03/08 05:02:28;;;;;;;6.47;5.18;;;2.20;97.10;;;;;;5084915;28;20039;-41
2022/03/08 05:04:54;;;;;;;6.47;5.68;;;2.20;97.10;;;;;;5075097;28;20016;-42
2022/03/08 05:07:23;;;;;;;6.65;5.47;;;2.10;97.10;;;;;;5084542;28;20090;-42
2022/03/08 05:09:48;;;;;;;7.60;5.30;;;2.10;97.10;;;;;;5076892;28;20072;-41
2022/03/08 05:12:14;;;;;;;7.57;5.53;;;2.20;97.10;;;;;;5066817;28;20527;-42
2022/03/08 05:14:40;;;;;;;6.50;5.43;;;2.10;97.00;;;;;;5077334;28;20032;-42
2022/03/08 05:17:05;;;;;;;7.85;5.72;;;2.10;97.10;;;;;;5066359;28;20024;-42
2022/03/08 05:19:31;;;;;;;5.32;4.60;;;2.10;97.10;;;;;;5078539;28;20112;-42
2022/03/08 05:21:56;;;;;;;7.60;5.85;;;2.10;97.10;;;;;;5065020;28;20032;-42
2022/03/08 05:24:22;;;;;;;6.28;5.18;;;2.10;97.10;;;;;;5075810;28;20610;-43
2022/03/08 05:26:47;;;;;;;7.22;5.57;;;2.00;97.10;;;;;;5067851;28;20020;-41
2022/03/08 05:29:13;;;;;;;7.43;6.03;;;2.00;97.10;;;;;;5072055;28;20028;-41
2022/03/08 05:31:38;;;;;;;6.63;5.55;;;2.00;97.10;;;;;;5070210;28;20029;-42
2022/03/08 05:34:04;;;;;;;7.93;6.03;;;2.00;97.20;;;;;;5070999;28;20024;-42
2022/03/08 05:36:30;;;;;;;7.95;6.45;;;2.00;97.20;;;;;;5072372;28;20429;-42
2022/03/08 05:38:55;;;;;;;7.55;6.75;;;2.00;97.20;;;;;;5067787;28;20028;-41
2022/03/08 05:41:21;;;;;;;6.68;5.90;;;2.00;97.20;;;;;;5076312;28;20025;-42
2022/03/08 05:43:47;;;;;;;8.02;6.32;;;1.90;97.20;;;;;;5065677;28;20023;-42
2022/03/08 05:46:12;;;;;;;7.10;5.57;;;1.90;97.20;;;;;;5076919;28;20218;-42
2022/03/08 05:48:38;;;;;;;7.68;6.47;;;1.90;97.20;;;;;;5070223;28;20043;-41
2022/03/08 05:51:03;;;;;;;6.90;5.93;;;1.90;97.30;;;;;;5073034;28;20028;-41
2022/03/08 05:53:29;;;;;;;7.57;6.20;;;1.90;97.30;;;;;;5085763;28;20111;-42
2022/03/08 05:55:55;;;;;;;7.60;5.82;;;1.90;97.30;;;;;;5072533;28;20135;-41
2022/03/08 05:58:21;;;;;;;8.27;6.10;;;1.90;97.30;;;;;;5085196;28;20020;-42
2022/03/08 06:00:46;;;;;;;8.60;6.38;;;1.80;97.30;;;;;;5073139;28;20449;-40
2022/03/08 06:03:12;;;;;;;10.02;6.53;;;1.80;97.30;;;;;;5084458;28;20039;-40
2022/03/08 06:05:37;;;;;;;12.55;7.35;;;1.80;97.40;;;;;;5075257;28;20032;-40
2022/03/08 06:08:04;;;;;;;7.22;6.00;;;1.80;97.40;;;;;;5082535;28;20024;-41
2022/03/08 06:10:29;;;;;;;8.18;6.68;;;1.80;97.40;;;;;;5078115;28;20118;-42
2022/03/08 06:12:55;;;;;;;7.85;6.43;;;1.80;97.40;;;;;;5079210;28;20114;-40
2022/03/08 06:15:21;;;;;;;8.07;6.32;;;1.80;97.40;;;;;;5081542;28;20020;-42
2022/03/08 06:17:46;;;;;;;7.38;6.03;;;1.80;97.40;;;;;;5075913;28;20028;-40
2022/03/08 06:20:12;;;;;;;6.95;5.97;;;1.80;97.40;;;;;;5084490;28;20031;-41
2022/03/08 06:22:39;;;;;;;7.43;6.30;;;1.80;97.40;;;;;;5073876;28;20027;-41
2022/03/08 06:25:05;;;;;;;8.60;6.47;;;1.80;97.40;;;;;;5083812;28;20093;-43
2022/03/08 06:27:31;;;;;;;7.50;6.35;;;1.80;97.50;;;;;;5074266;28;20688;-42
2022/03/08 06:29:57;;;;;;;9.52;7.40;;;1.80;97.50;;;;;;5085200;28;20500;-42
2022/03/08 06:32:22;;;;;;;10.70;6.78;;;1.80;97.50;;;;;;5072450;28;20483;-40
2022/03/08 06:34:50;;;;;;;8.85;6.53;;;1.80;97.40;;;;;;5088615;28;20026;-42
2022/03/08 06:37:16;;;;;;;8.65;6.78;;;1.90;97.40;;;;;;5076621;28;20031;-40
2022/03/08 06:39:42;;;;;;;7.65;6.57;;;1.90;97.30;;;;;;5088476;28;20032;-42
2022/03/08 06:42:07;;;;;;;9.25;7.07;;;1.90;97.30;;;;;;5077166;28;20060;-42
2022/03/08 06:44:34;;;;;;;7.97;6.85;;;2.00;97.60;;;;;;5087886;28;20032;-43
2022/03/08 06:46:59;;;;;;;9.73;7.13;;;2.00;97.30;;;;;;5079641;28;20033;-41
2022/03/08 06:49:25;;;;;;;8.70;7.47;;;2.00;97.30;;;;;;5085482;28;20089;-42
2022/03/08 06:51:50;;;;;;;9.07;7.20;;;2.00;97.30;;;;;;5082076;28;20017;-42
2022/03/08 06:54:16;;;;;;;9.10;6.68;;;2.00;97.30;;;;;;5082275;28;20032;-42
2022/03/08 06:56:41;;;;;;;8.05;7.20;;;2.10;97.20;;;;;;5084305;28;20062;-41
2022/03/08 06:59:07;;;;;;;7.63;6.75;;;2.10;97.20;;;;;;5079985;28;20028;-42
2022/03/08 07:01:33;;;;;;;9.43;6.82;;;2.10;97.20;;;;;;5086834;28;20059;-42
2022/03/08 07:04:02;;;;;;;9.18;7.15;;;2.20;97.20;;;;;;5077584;28;20044;-41
2022/03/08 07:06:29;;;;;;;8.25;6.97;;;2.20;97.10;;;;;;5086360;28;20036;-42
2022/03/08 07:08:54;;;;;;;9.93;7.53;;;2.20;97.10;;;;;;5077254;28;20032;-41
2022/03/08 07:11:20;;;;;;;9.05;7.53;;;2.20;97.00;;;;;;5088297;28;20032;-42
2022/03/08 07:13:45;;;;;;;9.77;7.45;;;2.30;96.90;;;;;;5074701;28;20066;-42
2022/03/08 07:16:11;;;;;;;8.73;6.80;;;2.30;96.90;;;;;;5089388;28;20069;-42
2022/03/08 07:18:36;;;;;;;9.23;7.28;;;2.40;96.90;;;;;;5074830;28;20131;-42
2022/03/08 07:21:05;;;;;;;11.23;7.45;;;2.40;96.80;;;;;;5087497;28;20028;-41
2022/03/08 07:23:30;;;;;;;15.35;8.00;;;2.40;96.80;;;;;;5076572;28;20020;-42
2022/03/08 07:25:56;;;;;;;9.55;7.60;;;2.50;96.80;;;;;;5087077;28;20047;-42
2022/03/08 07:28:21;;;;;;;10.18;7.32;;;2.50;96.60;;;;;;5079016;28;20598;-42
2022/03/08 07:30:47;;;;;;;11.18;7.07;;;2.50;96.60;;;;;;5084349;28;20125;-42
2022/03/08 07:33:13;;;;;;;8.25;6.65;;;2.60;96.60;;;;;;5082018;28;20110;-42
2022/03/08 07:35:38;;;;;;;9.55;7.57;;;2.60;96.60;;;;;;5080480;28;20097;-42
2022/03/08 07:38:04;;;;;;;9.32;7.18;;;2.70;96.60;;;;;;5084256;28;20024;-42
2022/03/08 07:40:29;;;;;;;8.52;7.10;;;2.70;96.50;;;;;;5079098;28;20032;-42
2022/03/08 07:42:55;;;;;;;9.05;7.75;;;2.70;96.50;;;;;;5085508;28;20036;-43
2022/03/08 07:45:20;;;;;;;9.00;6.82;;;2.80;96.50;;;;;;5076360;28;20060;-42
2022/03/08 07:47:49;;;;;;;10.57;7.28;;;2.80;96.50;;;;;;5085820;28;20047;-42
2022/03/08 07:50:15;;;;;;;8.25;7.13;;;2.90;96.50;;;;;;5076157;28;20620;-42
2022/03/08 07:52:40;;;;;;;9.15;7.28;;;2.90;96.40;;;;;;5087037;28;20639;-42
2022/03/08 07:55:07;;;;;;;9.52;6.82;;;3.00;96.40;;;;;;5074650;28;20139;-40
2022/03/08 07:57:34;;;;;;;9.95;7.32;;;3.00;96.40;;;;;;5086849;28;20142;-43
2022/03/08 08:00:00;;;;;;;9.00;7.53;;;3.00;96.30;;;;;;5074754;28;20029;-40
2022/03/08 08:02:25;;;;;;;9.05;7.47;;;3.10;96.30;;;;;;5087789;28;20027;-41
2022/03/08 08:04:52;;;;;;;10.30;6.85;;;3.10;96.30;;;;;;5075358;28;20447;-40
2022/03/08 08:07:18;;;;;;;10.18;7.50;;;3.10;96.30;;;;;;5086778;28;20032;-42
2022/03/08 08:09:45;;;;;;;9.50;7.70;;;3.20;96.30;;;;;;5077153;28;20152;-41
2022/03/08 08:12:10;;;;;;;8.55;6.90;;;3.30;96.20;;;;;;5083675;28;20039;-42
2022/03/08 08:14:36;;;;;;;8.98;7.78;;;3.30;96.20;;;;;;5081119;28;20041;-43
2022/03/08 08:17:01;;;;;;;10.07;7.32;;;3.30;96.10;;;;;;5068433;28;20024;-41
2022/03/08 08:19:27;;;;;;;7.97;7.13;;;3.40;96.10;;;;;;5070499;28;20487;-42
2022/03/08 08:21:53;;;;;;;8.68;6.70;;;3.40;96.00;;;;;;5075838;28;20468;-43
2022/03/08 08:24:18;;;;;;;9.77;7.38;;;3.50;96.00;;;;;;5067696;28;20150;-41
2022/03/08 08:26:43;;;;;;;9.30;6.85;;;3.50;96.00;;;;;;5077954;28;20055;-41
2022/03/08 08:29:09;;;;;;;8.55;7.30;;;3.60;95.90;;;;;;5068529;28;20422;-42
2022/03/08 08:31:35;;;;;;;10.27;7.80;;;3.70;96.00;;;;;;5073634;28;20021;-43
2022/03/08 08:34:00;;;;;;;9.48;7.45;;;3.70;95.90;;;;;;5065891;28;20023;-42
2022/03/08 08:36:26;;;;;;;8.18;7.07;;;3.80;95.90;;;;;;5078255;28;20110;-40
2022/03/08 08:38:52;;;;;;;11.13;6.97;;;3.90;95.90;;;;;;5065338;28;20024;-42
2022/03/08 08:41:17;;;;;;;7.88;6.50;;;4.00;95.80;;;;;;5078155;28;20020;-38
2022/03/08 08:43:43;;;;;;;7.28;6.47;;;4.00;95.70;;;;;;5065980;28;20553;-40
2022/03/08 08:46:09;;;;;;;6.60;5.90;;;4.10;95.40;;;;;;5075422;28;20020;-42
2022/03/08 08:48:35;;;;;;;9.82;6.70;;;4.20;95.40;;;;;;5067360;28;20024;-39
2022/03/08 08:51:01;;;;;;;7.47;6.57;;;4.20;95.20;;;;;;5074553;28;20035;-40
2022/03/08 08:53:26;;;;;;;6.50;5.72;;;4.30;94.80;;;;;;5069669;28;20028;-42
2022/03/08 08:55:52;;;;;;;8.40;6.60;;;4.40;95.00;;;;;;5069890;28;20063;-42
2022/03/08 08:58:18;;;;;;;8.02;5.72;;;4.50;94.50;;;;;;5072878;28;20020;-42
2022/03/08 09:00:43;;;;;;;7.65;6.20;;;4.50;94.50;;;;;;5066916;28;20546;-42
2022/03/08 09:03:14;;;;;;;5.85;4.97;;;4.60;94.40;;;;;;5076081;28;20025;-42
2022/03/08 09:05:43;;;;;;;9.30;6.20;;;4.70;94.50;;;;;;5066555;28;20048;-41
2022/03/08 09:08:09;;;;;;;10.93;6.70;;;4.80;94.20;;;;;;5075630;28;20021;-43
2022/03/08 09:10:35;;;;;;;10.02;6.32;;;4.80;94.20;;;;;;5066485;28;20058;-43
2022/03/08 09:13:00;;;;;;;7.72;5.82;;;4.90;94.30;;;;;;5075108;28;20528;-41
2022/03/08 09:15:26;;;;;;;8.60;5.90;;;4.90;94.10;;;;;;5065403;28;20032;-41
2022/03/08 09:17:51;;;;;;;7.20;6.20;;;5.00;94.10;;;;;;5077354;28;20044;-42
2022/03/08 09:20:17;;;;;;;9.88;6.85;;;5.00;93.80;;;;;;5064431;28;20032;-42
2022/03/08 09:22:43;;;;;;;7.32;6.28;;;5.10;93.80;;;;;;5077228;28;20028;-42
2022/03/08 09:25:08;;;;;;;9.20;6.03;;;5.20;93.80;;;;;;5065587;28;20024;-42
2022/03/08 09:27:34;;;;;;;7.00;6.20;;;5.20;93.80;;;;;;5074434;28;20111;-42
2022/03/08 09:30:01;;;;;;;7.10;5.70;;;5.30;93.80;;;;;;5066980;28;20037;-41
2022/03/08 09:32:27;;;;;;;9.35;6.70;;;5.30;93.70;;;;;;5072940;28;20024;-42
2022/03/08 09:34:52;;;;;;;7.97;6.43;;;5.40;93.40;;;;;;5068472;28;20038;-43
2022/03/08 09:37:18;;;;;;;5.93;5.15;;;5.50;93.10;;;;;;5070533;28;20032;-40
2022/03/08 09:39:43;;;;;;;6.93;5.97;;;5.50;93.20;;;;;;5071531;28;20035;-42
2022/03/08 09:42:10;;;;;;;8.02;6.05;;;5.60;92.90;;;;;;5067527;28;20063;-44
2022/03/08 09:44:36;;;;;;;8.43;5.80;;;5.60;92.80;;;;;;5073558;28;20181;-42
2022/03/08 09:47:03;;;;;;;5.88;5.07;;;5.70;92.80;;;;;;5065734;28;20862;-42
2022/03/08 09:49:29;;;;;;;8.73;5.25;;;5.80;92.90;;;;;;5071239;28;20423;-42
2022/03/08 09:51:54;;;;;;;7.22;5.53;;;5.80;92.90;;;;;;5065778;28;20025;-41
2022/03/08 09:54:20;;;;;;;7.85;5.25;;;5.90;92.80;;;;;;5076145;28;20704;-43
2022/03/08 09:56:47;;;;;;;9.13;6.40;;;5.90;92.80;;;;;;5063229;28;20101;-43
2022/03/08 09:59:19;;;;;;;6.55;5.40;;;6.00;92.60;;;;;;5077610;28;20502;-41
2022/03/08 10:01:46;;;;;;;6.82;6.10;;;6.10;92.60;;;;;;5064203;28;20051;-42
2022/03/08 10:04:16;;;;;;;6.63;5.93;;;6.10;92.30;;;;;;5076905;28;20040;-43
2022/03/08 10:06:43;;;;;;;7.80;5.85;;;6.10;92.10;;;;;;5063862;28;20433;-42
2022/03/08 10:09:13;;;;;;;7.07;5.25;;;6.20;92.10;;;;;;5081026;28;20059;-43
2022/03/08 10:11:39;;;;;;;9.50;6.15;;;6.30;92.00;;;;;;5068363;28;20140;-42
2022/03/08 10:14:10;;;;;;;6.40;5.43;;;6.30;91.90;;;;;;5079629;28;20379;-42
2022/03/08 10:16:43;;;;;;;9.80;6.75;;;6.40;91.80;;;;;;5069015;28;20139;-43
2022/03/08 10:19:12;;;;;;;8.60;6.43;;;6.40;91.70;;;;;;5077436;28;20093;-42
2022/03/08 10:21:51;;;;;;;7.43;6.25;;;6.50;91.30;;;;;;5069248;28;20058;-42
2022/03/08 10:24:18;;;;;;;7.90;6.20;;;6.50;91.10;;;;;;5075511;28;20059;-41
2022/03/08 10:26:56;;;;;;;7.88;6.07;;;6.50;90.90;;;;;;5070565;28;20494;-41
2022/03/08 10:29:28;;;;;;;6.97;5.50;;;6.60;90.90;;;;;;5076204;28;20032;-43
2022/03/08 10:32:07;;;;;;;8.55;6.10;;;6.60;90.80;;;;;;5070334;28;20028;-42
2022/03/08 10:34:33;;;;;;;6.90;5.15;;;6.70;91.00;;;;;;5075787;28;20046;-41
2022/03/08 10:37:10;;;;;;;7.70;6.00;;;6.70;91.10;;;;;;5071908;28;20669;-43
2022/03/08 10:39:48;;;;;;;6.55;5.13;;;6.80;91.10;;;;;;5074920;28;20050;-41
2022/03/08 10:42:38;;;;;;;7.50;4.72;;;6.80;91.10;;;;;;5071915;28;20051;-43
2022/03/08 10:45:07;;;;;;;7.82;5.55;;;6.90;91.10;;;;;;5077140;28;20032;-42
2022/03/08 10:47:50;;;;;;;6.32;4.63;;;7.00;91.00;;;;;;5069394;28;20025;-43
2022/03/08 10:50:17;;;;;;;5.88;5.00;;;7.10;91.00;;;;;;5077307;28;20036;-41
2022/03/08 10:52:45;;;;;;;6.30;5.07;;;7.10;90.60;;;;;;5085431;28;20046;-44
2022/03/08 10:55:11;;;;;;;7.70;5.10;;;7.20;90.40;;;;;;5080383;28;20048;-42
2022/03/08 10:57:38;;;;;;;8.68;5.50;;;7.30;90.20;;;;;;5083386;28;20032;-41
2022/03/08 11:00:11;;;;;;;9.38;6.57;;;7.40;89.90;;;;;;5082806;28;20009;-43
2022/03/08 11:02:55;;;;;;;6.93;5.55;;;7.40;89.00;;;;;;5082239;28;20024;-42
2022/03/08 11:05:26;;;;;;;7.30;5.45;;;7.50;89.10;;;;;;5082254;28;20024;-43
2022/03/08 11:07:52;;;;;;;6.65;4.95;;;7.60;88.70;;;;;;5081748;28;20141;-42
2022/03/08 11:10:20;;;;;;;6.30;4.68;;;7.60;88.50;;;;;;5083708;28;20035;-43
2022/03/08 11:12:46;;;;;;;4.80;4.15;;;7.70;88.70;;;;;;5079332;28;20024;-42
2022/03/08 11:15:14;;;;;;;4.43;3.85;;;7.80;88.60;;;;;;5086667;28;20027;-41
2022/03/08 11:17:43;;;;;;;5.95;4.40;;;7.80;88.50;;;;;;5077877;28;20048;-44
2022/03/08 11:20:10;;;;;;;4.22;3.63;;;7.90;88.00;;;;;;5084639;28;20036;-42
2022/03/08 11:22:37;;;;;;;5.30;3.53;;;8.00;86.70;;;;;;5076012;28;20020;-43
2022/03/08 11:25:04;;;;;;;6.47;3.70;;;8.10;85.10;;;;;;5087228;28;20113;-42
2022/03/08 11:27:31;;;;;;;5.30;3.97;;;8.20;84.90;;;;;;5075843;28;20021;-43
2022/03/08 11:29:56;;;;;;;7.13;4.00;;;8.20;83.10;;;;;;5087556;28;20040;-40
2022/03/08 11:32:31;;;;;;;5.22;4.00;;;8.30;82.10;;;;;;5075353;28;20024;-41
2022/03/08 11:35:21;;;;;;;4.25;3.67;;;8.30;80.30;;;;;;5086894;28;20043;-39
2022/03/08 11:37:48;;;;;;;6.05;3.70;;;8.40;80.90;;;;;;5075854;28;20020;-42
2022/03/08 11:40:19;;;;;;;5.10;3.40;;;8.40;81.30;;;;;;5088243;28;20031;-42
2022/03/08 11:42:47;;;;;;;4.70;3.30;;;8.40;81.60;;;;;;5073868;28;20028;-41
2022/03/08 11:45:28;;;;;;;4.57;3.83;;;8.40;81.30;;;;;;5087928;28;20028;-42
2022/03/08 11:48:05;;;;;;;4.85;3.90;;;8.40;81.10;;;;;;5073283;28;20085;-42
2022/03/08 11:50:39;;;;;;;4.35;3.70;;;8.50;79.80;;;;;;5087518;28;20046;-41
2022/03/08 11:53:05;;;;;;;4.00;3.55;;;8.50;79.10;;;;;;5074517;28;20016;-41
2022/03/08 11:55:35;;;;;;;5.78;3.40;;;8.60;78.90;;;;;;5086572;28;20052;-43
2022/03/08 11:58:05;;;;;;;6.50;3.95;;;8.60;79.20;;;;;;5074752;28;20029;-43
2022/03/08 12:00:35;;;;;;;6.00;3.88;;;8.70;79.10;;;;;;5087037;28;20499;-43
2022/03/08 12:03:14;;;;;;;5.85;4.05;;;8.80;77.80;;;;;;5074138;28;20145;-43
2022/03/08 12:05:55;;;;;;;5.18;4.10;;;8.80;77.50;;;;;;5087013;28;20042;-42
2022/03/08 12:08:27;;;;;;;4.22;3.83;;;8.80;77.10;;;;;;5074530;28;20111;-43
2022/03/08 12:11:00;;;;;;;4.85;4.18;;;8.90;76.70;;;;;;5086284;28;20156;-42
2022/03/08 12:13:32;;;;;;;6.28;4.00;;;8.80;76.50;;;;;;5074167;28;20068;-42
2022/03/08 12:16:09;;;;;;;5.15;3.92;;;8.90;77.00;;;;;;5086866;28;20039;-41
2022/03/08 12:18:52;;;;;;;6.00;4.70;;;9.00;77.00;;;;;;5073846;28;20060;-42
2022/03/08 12:21:18;;;;;;;5.30;3.85;;;9.00;76.90;;;;;;5086747;28;20044;-44
2022/03/08 12:23:48;;;;;;;5.13;4.10;;;9.10;77.80;;;;;;5072848;28;20085;-43
2022/03/08 12:26:37;;;;;;;5.68;4.10;;;9.20;75.70;;;;;;5086981;28;20102;-42
2022/03/08 12:29:06;;;;;;;4.43;4.00;;;9.20;75.30;;;;;;5074299;28;20021;-40
2022/03/08 12:31:34;;;;;;;6.05;4.38;;;9.20;75.30;;;;;;5084619;28;20031;-42
2022/03/08 12:34:06;;;;;;;4.15;3.75;;;9.20;75.60;;;;;;5074714;28;20478;-42
2022/03/08 12:36:34;;;;;;;4.65;4.10;;;9.20;75.90;;;;;;5065518;28;20563;-43
2022/03/08 12:39:00;;;;;;;4.53;4.00;;;9.20;75.70;;;;;;5077653;28;20020;-43
2022/03/08 12:41:27;;;;;;;7.72;4.72;;;9.20;75.20;;;;;;5068870;28;20090;-42
2022/03/08 12:44:00;;;;;;;4.78;4.05;;;9.30;75.00;;;;;;5075607;28;20020;-43
2022/03/08 12:46:27;;;;;;;5.25;4.15;;;9.30;74.70;;;;;;5069980;28;20453;-44
2022/03/08 12:48:53;;;;;;;5.30;4.57;;;9.30;74.60;;;;;;5073355;28;20073;-42
2022/03/08 12:51:22;;;;;;;6.00;4.65;;;9.40;73.30;;;;;;5071953;28;20074;-41
2022/03/08 12:53:56;;;;;;;5.10;4.25;;;9.40;73.40;;;;;;5071291;28;20023;-43